Time;durP1;ratioP1;P1;durP2;ratioP2;P2;SDS_P1;SDS_P2;PMS_P1;PMS_P2;Temp;Humidity;BMP_temperature;BMP_pressure;BME280_temperature;BME280_humidity;BME280_pressure;Samples;Min_cycle;Max_cycle;Signal;HPM_P1;HPM_P2
2023/10/26 00:00:52;;;;;;;23.20;18.17;;;12.50;99.90;;;;;;5073881;28;20539;-59
2023/10/26 00:03:19;;;;;;;21.17;18.57;;;12.50;99.90;;;;;;5073675;28;20472;-59
2023/10/26 00:05:46;;;;;;;22.80;17.53;;;12.50;99.90;;;;;;5073578;28;20822;-59
2023/10/26 00:08:14;;;;;;;22.50;18.83;;;12.50;99.90;;;;;;5073753;28;20437;-59
2023/10/26 00:10:41;;;;;;;20.27;17.70;;;12.50;99.90;;;;;;5073578;28;20947;-59
2023/10/26 00:13:07;;;;;;;25.60;19.97;;;12.50;99.90;;;;;;5073663;28;20448;-59
2023/10/26 00:15:34;;;;;;;22.20;18.00;;;12.50;99.90;;;;;;5073693;28;20440;-59
2023/10/26 00:18:01;;;;;;;22.33;18.57;;;12.50;99.90;;;;;;5073613;28;20476;-59
2023/10/26 00:20:28;;;;;;;23.27;17.90;;;12.50;99.90;;;;;;5073513;28;20464;-59
2023/10/26 00:22:54;;;;;;;23.60;19.07;;;12.50;99.90;;;;;;5073543;28;20449;-59
2023/10/26 00:25:22;;;;;;;20.33;18.07;;;12.50;99.90;;;;;;5073528;28;20447;-59
2023/10/26 00:27:49;;;;;;;23.67;19.53;;;12.50;99.90;;;;;;5073481;28;20441;-59
2023/10/26 00:30:16;;;;;;;21.57;18.30;;;12.50;99.90;;;;;;5073386;28;20448;-59
2023/10/26 00:32:42;;;;;;;19.83;17.73;;;12.50;99.90;;;;;;5073476;28;20448;-59
2023/10/26 00:35:09;;;;;;;20.77;18.43;;;12.50;99.90;;;;;;5073196;28;20447;-59
2023/10/26 00:37:36;;;;;;;20.83;18.33;;;12.40;99.90;;;;;;5072431;28;20476;-59
2023/10/26 00:40:04;;;;;;;22.47;18.10;;;12.50;99.90;;;;;;5073064;28;20455;-59
2023/10/26 00:42:32;;;;;;;20.67;18.20;;;12.50;99.90;;;;;;5073255;28;20461;-59
2023/10/26 00:44:58;;;;;;;22.10;17.77;;;12.50;99.90;;;;;;5073341;28;20441;-59
2023/10/26 00:47:26;;;;;;;20.80;18.00;;;12.40;99.90;;;;;;5073266;28;20437;-59
2023/10/26 00:49:54;;;;;;;26.40;18.07;;;12.40;99.90;;;;;;5073241;28;20525;-59
2023/10/26 00:52:21;;;;;;;20.77;17.20;;;12.50;99.90;;;;;;5073136;28;20461;-59
2023/10/26 00:54:48;;;;;;;20.70;17.07;;;12.40;99.90;;;;;;5072963;28;20947;-59
2023/10/26 00:57:17;;;;;;;19.40;17.30;;;12.40;99.90;;;;;;5073184;28;20443;-59
2023/10/26 00:59:46;;;;;;;21.50;17.83;;;12.40;99.90;;;;;;5073254;28;20445;-59
2023/10/26 01:02:14;;;;;;;24.47;18.43;;;12.40;99.90;;;;;;5072868;28;20986;-59
2023/10/26 01:04:41;;;;;;;21.23;17.60;;;12.40;99.90;;;;;;5072787;28;20540;-59
2023/10/26 01:07:08;;;;;;;19.87;16.73;;;12.40;99.90;;;;;;5073982;28;20780;-59
2023/10/26 01:09:35;;;;;;;22.20;18.07;;;12.40;99.90;;;;;;5072870;28;20973;-59
2023/10/26 01:12:02;;;;;;;21.07;17.57;;;12.40;99.90;;;;;;5072965;28;20469;-59
2023/10/26 01:14:29;;;;;;;22.03;17.53;;;12.40;99.90;;;;;;5073100;28;20498;-59
2023/10/26 01:16:57;;;;;;;20.50;17.43;;;12.40;99.90;;;;;;5072750;28;20445;-59
2023/10/26 01:19:37;;;;;;;21.90;17.73;;;12.40;99.90;;;;;;5072635;28;21028;-59
2023/10/26 01:22:05;;;;;;;21.23;17.30;;;12.50;99.90;;;;;;5073019;28;20503;-59
2023/10/26 01:24:32;;;;;;;20.97;18.30;;;12.50;99.90;;;;;;5073107;28;20447;-59
2023/10/26 01:26:59;;;;;;;22.10;17.80;;;12.50;99.90;;;;;;5072921;28;20448;-59
2023/10/26 01:29:26;;;;;;;22.30;17.90;;;12.50;99.90;;;;;;5072875;28;20444;-59
2023/10/26 01:31:53;;;;;;;23.10;17.77;;;12.50;99.90;;;;;;5072470;28;20887;-59
2023/10/26 01:34:19;;;;;;;18.90;16.90;;;12.40;99.90;;;;;;5072557;28;20842;-59
2023/10/26 01:36:46;;;;;;;19.87;16.83;;;12.40;99.90;;;;;;5072814;28;20449;-59
2023/10/26 01:39:15;;;;;;;21.47;17.03;;;12.30;99.90;;;;;;5072424;28;20498;-59
2023/10/26 01:41:42;;;;;;;20.60;18.43;;;12.30;99.90;;;;;;5072723;28;20522;-59
2023/10/26 01:44:09;;;;;;;22.60;18.33;;;12.30;99.90;;;;;;5072797;28;20461;-59
2023/10/26 01:46:35;;;;;;;22.73;18.87;;;12.30;99.90;;;;;;5072749;28;20468;-59
2023/10/26 01:49:02;;;;;;;20.90;17.63;;;12.30;99.90;;;;;;5073388;28;20451;-59
2023/10/26 01:51:29;;;;;;;22.60;18.20;;;12.20;99.90;;;;;;5076327;28;20471;-59
2023/10/26 01:53:56;;;;;;;22.20;18.00;;;12.20;99.90;;;;;;5076282;28;20451;-59
2023/10/26 01:56:24;;;;;;;19.80;17.20;;;12.30;99.90;;;;;;5076277;28;20448;-59
2023/10/26 01:58:50;;;;;;;20.50;18.30;;;12.20;99.90;;;;;;5076299;28;20499;-59
2023/10/26 02:01:17;;;;;;;20.67;18.47;;;12.10;99.90;;;;;;5077027;28;20860;-59
2023/10/26 02:03:44;;;;;;;23.87;18.73;;;12.10;99.90;;;;;;5076642;28;20455;-59
2023/10/26 02:06:11;;;;;;;20.70;18.50;;;12.10;99.90;;;;;;5077330;28;20444;-59
2023/10/26 02:08:37;;;;;;;22.23;18.50;;;12.20;99.90;;;;;;5077175;28;20437;-59
2023/10/26 02:11:04;;;;;;;23.27;19.57;;;12.10;99.90;;;;;;5076651;28;20468;-59
2023/10/26 02:13:35;;;;;;;20.60;18.43;;;12.10;99.90;;;;;;5076224;28;20484;-59
2023/10/26 02:16:02;;;;;;;21.40;19.10;;;12.20;99.90;;;;;;5076020;28;20512;-59
2023/10/26 02:18:28;;;;;;;24.23;18.50;;;12.10;99.90;;;;;;5075882;28;20487;-59
2023/10/26 02:20:55;;;;;;;23.50;19.90;;;12.10;99.90;;;;;;5075844;28;20562;-59
2023/10/26 02:23:22;;;;;;;23.03;18.47;;;12.20;99.90;;;;;;5075807;28;20448;-59
2023/10/26 02:25:49;;;;;;;20.30;17.97;;;12.20;99.90;;;;;;5075835;28;20448;-59
2023/10/26 02:28:16;;;;;;;22.77;16.73;;;12.20;99.90;;;;;;5075711;28;20452;-59
2023/10/26 02:30:45;;;;;;;20.87;18.47;;;12.20;99.90;;;;;;5075689;28;20504;-59
2023/10/26 02:33:12;;;;;;;20.33;16.77;;;12.20;99.90;;;;;;5075571;28;20469;-59
2023/10/26 02:35:39;;;;;;;19.30;17.30;;;12.20;99.90;;;;;;5075779;28;20449;-59
2023/10/26 02:38:06;;;;;;;18.77;16.77;;;12.20;99.90;;;;;;5075599;28;20518;-59
2023/10/26 02:40:35;;;;;;;19.00;16.60;;;12.20;99.90;;;;;;5075351;28;20997;-59
2023/10/26 02:43:02;;;;;;;20.60;18.47;;;12.10;99.90;;;;;;5075406;28;20852;-59
2023/10/26 02:45:29;;;;;;;20.03;16.13;;;12.10;99.90;;;;;;5075434;28;20444;-59
2023/10/26 02:47:57;;;;;;;21.97;17.43;;;12.20;99.90;;;;;;5075347;28;20447;-59
2023/10/26 02:50:23;;;;;;;19.23;17.20;;;12.10;99.90;;;;;;5074975;28;20939;-59
2023/10/26 02:52:50;;;;;;;20.50;17.80;;;12.20;99.90;;;;;;5075209;28;20445;-59
2023/10/26 02:55:17;;;;;;;18.30;16.07;;;12.10;99.90;;;;;;5075253;28;20444;-59
2023/10/26 02:57:43;;;;;;;19.13;17.23;;;12.20;99.90;;;;;;5075088;28;20444;-59
2023/10/26 03:00:12;;;;;;;18.93;17.03;;;12.20;99.90;;;;;;5074805;28;20441;-60
2023/10/26 03:02:39;;;;;;;21.97;16.50;;;12.20;99.90;;;;;;5074480;28;20485;-59
2023/10/26 03:05:08;;;;;;;19.07;16.50;;;12.20;99.90;;;;;;5074689;28;20525;-59
2023/10/26 03:07:35;;;;;;;18.23;15.63;;;12.20;99.90;;;;;;5074936;28;20536;-59
2023/10/26 03:10:02;;;;;;;21.70;17.50;;;12.20;99.90;;;;;;5074905;28;20511;-59
2023/10/26 03:12:28;;;;;;;20.60;18.40;;;12.20;99.90;;;;;;5074758;28;20478;-59
2023/10/26 03:14:55;;;;;;;19.37;16.20;;;12.10;99.90;;;;;;5074820;28;20448;-59
2023/10/26 03:17:22;;;;;;;18.50;16.47;;;12.10;99.90;;;;;;5074787;28;20519;-59
2023/10/26 03:19:48;;;;;;;18.23;16.33;;;12.10;99.90;;;;;;5074666;28;20491;-59
2023/10/26 03:22:16;;;;;;;19.33;16.97;;;12.10;99.90;;;;;;5074577;28;20465;-59
2023/10/26 03:24:43;;;;;;;22.53;16.03;;;12.10;99.90;;;;;;5074610;28;20437;-59
2023/10/26 03:27:10;;;;;;;18.70;15.23;;;12.20;99.90;;;;;;5074824;28;20444;-59
2023/10/26 03:29:36;;;;;;;19.60;17.50;;;12.20;99.90;;;;;;5074535;28;20445;-59
2023/10/26 03:32:03;;;;;;;17.73;15.90;;;12.10;99.90;;;;;;5074396;28;20483;-60
2023/10/26 03:34:32;;;;;;;19.73;16.60;;;12.20;99.90;;;;;;5074419;28;20448;-59
2023/10/26 03:36:59;;;;;;;20.20;16.47;;;12.10;99.90;;;;;;5074144;28;20836;-59
2023/10/26 03:39:27;;;;;;;20.70;17.07;;;12.10;99.90;;;;;;5074263;28;20890;-60
2023/10/26 03:41:53;;;;;;;17.43;15.63;;;12.10;99.90;;;;;;5074002;28;20871;-59
2023/10/26 03:44:20;;;;;;;17.50;15.60;;;12.20;99.90;;;;;;5074134;28;20856;-59
2023/10/26 03:46:47;;;;;;;22.13;16.90;;;12.10;99.90;;;;;;5074189;28;20440;-59
2023/10/26 03:49:13;;;;;;;17.27;15.47;;;12.10;99.90;;;;;;5074167;28;20452;-59
2023/10/26 03:51:40;;;;;;;20.20;15.87;;;12.10;99.90;;;;;;5074029;28;20469;-60
2023/10/26 03:54:07;;;;;;;19.03;17.03;;;12.10;99.90;;;;;;5074079;28;20449;-59
2023/10/26 03:56:35;;;;;;;19.00;16.00;;;12.10;99.90;;;;;;5073740;28;20931;-59
2023/10/26 03:59:02;;;;;;;19.00;15.63;;;12.10;99.90;;;;;;5073780;28;20538;-59
2023/10/26 04:01:29;;;;;;;17.40;14.80;;;12.10;99.90;;;;;;5073550;28;21006;-59
2023/10/26 04:03:56;;;;;;;19.83;15.77;;;12.10;99.90;;;;;;5073652;28;20456;-59
2023/10/26 04:06:23;;;;;;;17.33;15.50;;;12.00;99.90;;;;;;5073820;28;20440;-59
2023/10/26 04:08:50;;;;;;;19.57;16.07;;;12.00;99.90;;;;;;5073790;28;20448;-59
2023/10/26 04:11:17;;;;;;;20.17;14.17;;;12.00;99.90;;;;;;5073728;28;20514;-59
2023/10/26 04:13:45;;;;;;;15.30;13.70;;;11.90;99.90;;;;;;5073528;28;20468;-59
2023/10/26 04:16:12;;;;;;;15.73;13.93;;;11.90;99.90;;;;;;5073706;28;20443;-59
2023/10/26 04:18:38;;;;;;;15.00;13.40;;;11.90;99.90;;;;;;5073299;28;20526;-59
2023/10/26 04:21:05;;;;;;;14.47;12.97;;;11.90;99.90;;;;;;5073298;28;20472;-59
2023/10/26 04:23:32;;;;;;;16.50;13.27;;;12.00;99.90;;;;;;5073601;28;20472;-59
2023/10/26 04:25:59;;;;;;;15.53;13.20;;;12.00;99.90;;;;;;5073541;28;20845;-59
2023/10/26 04:28:26;;;;;;;12.47;11.17;;;12.00;99.90;;;;;;5073646;28;20483;-59
2023/10/26 04:30:54;;;;;;;11.70;10.60;;;12.00;99.90;;;;;;5073485;28;20463;-59
2023/10/26 04:33:21;;;;;;;13.97;12.47;;;11.90;99.90;;;;;;5073202;28;20968;-59
2023/10/26 04:35:50;;;;;;;13.87;12.47;;;12.00;99.90;;;;;;5073484;28;20441;-59
2023/10/26 04:38:16;;;;;;;15.37;11.10;;;11.90;99.90;;;;;;5073317;28;20450;-59
2023/10/26 04:40:44;;;;;;;14.80;12.33;;;11.90;99.90;;;;;;5073380;28;20514;-59
2023/10/26 04:43:11;;;;;;;13.67;12.27;;;11.90;99.90;;;;;;5073398;28;20436;-59
2023/10/26 04:45:38;;;;;;;13.40;12.00;;;11.90;99.90;;;;;;5073344;28;20901;-59
2023/10/26 04:48:06;;;;;;;13.00;11.70;;;12.00;99.90;;;;;;5073521;28;20437;-59
2023/10/26 04:50:33;;;;;;;13.63;11.90;;;11.90;99.90;;;;;;5073274;28;20527;-59
2023/10/26 04:52:59;;;;;;;13.17;11.63;;;11.90;99.90;;;;;;5072919;28;20939;-59
2023/10/26 04:55:30;;;;;;;13.80;12.40;;;11.80;99.90;;;;;;5073202;28;20440;-59
2023/10/26 04:57:56;;;;;;;14.30;12.83;;;11.80;99.90;;;;;;5073987;28;20429;-59
2023/10/26 05:00:23;;;;;;;12.50;11.03;;;11.80;99.90;;;;;;5073116;28;20492;-59
2023/10/26 05:02:50;;;;;;;12.23;10.50;;;11.80;99.90;;;;;;5073033;28;20470;-59
2023/10/26 05:05:18;;;;;;;12.43;10.07;;;11.80;99.90;;;;;;5073261;28;20429;-59
2023/10/26 05:07:45;;;;;;;14.53;11.60;;;11.80;99.90;;;;;;5073170;28;20853;-59
2023/10/26 05:10:12;;;;;;;12.70;11.03;;;11.80;99.90;;;;;;5073092;28;21026;-59
2023/10/26 05:12:39;;;;;;;14.33;11.23;;;11.80;99.90;;;;;;5073212;28;20455;-59
2023/10/26 05:15:07;;;;;;;12.77;10.77;;;11.80;99.90;;;;;;5073140;28;20509;-59
2023/10/26 05:17:35;;;;;;;14.60;11.80;;;11.80;99.90;;;;;;5073391;28;20491;-59
2023/10/26 05:20:02;;;;;;;12.27;9.80;;;11.80;99.90;;;;;;5073165;28;20476;-59
2023/10/26 05:22:32;;;;;;;13.47;10.77;;;11.80;99.90;;;;;;5073050;28;20838;-59
2023/10/26 05:24:59;;;;;;;11.57;10.33;;;11.80;99.90;;;;;;5075310;28;20445;-59
2023/10/26 05:27:26;;;;;;;12.37;11.07;;;11.80;99.90;;;;;;5077045;28;20451;-59
2023/10/26 05:29:53;;;;;;;12.20;10.40;;;11.80;99.90;;;;;;5076865;28;20440;-59
2023/10/26 05:32:20;;;;;;;12.97;9.43;;;11.80;99.90;;;;;;5076637;28;20461;-59
2023/10/26 05:34:47;;;;;;;11.60;10.40;;;11.80;99.90;;;;;;5076882;28;20448;-59
2023/10/26 05:37:13;;;;;;;11.80;10.60;;;11.80;99.90;;;;;;5076677;28;20448;-59
2023/10/26 05:39:41;;;;;;;11.03;9.43;;;11.80;99.90;;;;;;5076550;28;20480;-59
2023/10/26 05:42:08;;;;;;;11.60;10.40;;;11.80;99.90;;;;;;5076298;28;21006;-59
2023/10/26 05:44:35;;;;;;;12.10;10.67;;;11.80;99.90;;;;;;5076780;28;20445;-59
2023/10/26 05:47:01;;;;;;;10.70;9.50;;;11.80;99.90;;;;;;5076763;28;20445;-59
2023/10/26 05:49:28;;;;;;;9.80;8.80;;;11.80;99.90;;;;;;5076562;28;20440;-59
2023/10/26 05:51:57;;;;;;;10.33;9.33;;;11.70;99.90;;;;;;5076358;28;20831;-59
2023/10/26 05:54:23;;;;;;;11.33;9.17;;;11.70;99.90;;;;;;5076367;28;20470;-59
2023/10/26 05:56:51;;;;;;;10.30;9.30;;;11.70;99.90;;;;;;5076497;28;20494;-59
2023/10/26 05:59:18;;;;;;;12.60;10.50;;;11.70;99.90;;;;;;5076263;28;20510;-59
2023/10/26 06:01:45;;;;;;;12.77;9.30;;;11.60;99.90;;;;;;5076136;28;20469;-59
2023/10/26 06:04:11;;;;;;;13.07;10.73;;;11.60;99.90;;;;;;5075990;28;20463;-59
2023/10/26 06:06:38;;;;;;;10.80;9.77;;;11.60;99.90;;;;;;5076341;28;20467;-59
2023/10/26 06:09:05;;;;;;;10.50;9.50;;;11.50;99.90;;;;;;5076474;28;20511;-59
2023/10/26 06:11:31;;;;;;;11.30;10.20;;;11.50;99.90;;;;;;5076388;28;20839;-59
2023/10/26 06:13:59;;;;;;;10.80;8.50;;;11.40;99.90;;;;;;5076354;28;20448;-59
2023/10/26 06:16:26;;;;;;;10.17;8.53;;;11.40;99.90;;;;;;5076300;28;20444;-59
2023/10/26 06:18:53;;;;;;;9.90;8.30;;;11.40;99.90;;;;;;5075854;28;20448;-59
2023/10/26 06:21:19;;;;;;;11.53;9.60;;;11.40;99.90;;;;;;5075892;28;20518;-59
2023/10/26 06:23:46;;;;;;;10.63;9.33;;;11.40;99.90;;;;;;5075803;28;20452;-59
2023/10/26 06:26:13;;;;;;;11.00;9.90;;;11.30;99.90;;;;;;5075445;28;20832;-59
2023/10/26 06:28:40;;;;;;;12.13;10.60;;;11.40;99.90;;;;;;5075892;28;20445;-59
2023/10/26 06:31:14;;;;;;;11.93;10.10;;;11.40;99.90;;;;;;5075605;28;20461;-59
2023/10/26 06:33:41;;;;;;;12.20;10.83;;;11.30;99.90;;;;;;5076492;28;20524;-59
2023/10/26 06:36:08;;;;;;;12.83;10.00;;;11.30;99.90;;;;;;5075591;28;20808;-59
2023/10/26 06:38:35;;;;;;;13.07;9.30;;;11.30;99.90;;;;;;5075538;28;20528;-59
2023/10/26 06:41:02;;;;;;;12.53;9.03;;;11.30;99.90;;;;;;5075303;28;20491;-59
2023/10/26 06:43:30;;;;;;;11.40;10.00;;;11.30;99.90;;;;;;5075460;28;20463;-59
2023/10/26 06:45:56;;;;;;;10.80;9.37;;;11.20;99.90;;;;;;5075442;28;20444;-59
2023/10/26 06:48:24;;;;;;;11.80;9.57;;;11.20;99.90;;;;;;5075402;28;20471;-59
2023/10/26 06:50:58;;;;;;;14.40;9.27;;;11.20;99.90;;;;;;5075268;28;20511;-59
2023/10/26 06:53:25;;;;;;;8.97;8.03;;;11.20;99.90;;;;;;5075353;28;20470;-59
2023/10/26 06:55:52;;;;;;;11.10;9.27;;;11.20;99.90;;;;;;5075238;28;20448;-59
2023/10/26 06:58:19;;;;;;;11.00;9.53;;;11.20;99.90;;;;;;5075154;28;20444;-59
2023/10/26 07:00:46;;;;;;;16.23;14.37;;;11.20;99.90;;;;;;5075021;28;20508;-59
2023/10/26 07:03:13;;;;;;;17.63;14.87;;;11.20;99.90;;;;;;5074888;28;20463;-59
2023/10/26 07:05:41;;;;;;;15.67;14.00;;;11.30;99.90;;;;;;5075091;28;20429;-59
2023/10/26 07:08:08;;;;;;;16.17;14.47;;;11.40;99.90;;;;;;5074984;28;20942;-59
2023/10/26 07:10:35;;;;;;;15.93;14.20;;;11.40;99.90;;;;;;5074834;28;20465;-59
2023/10/26 07:13:01;;;;;;;18.17;14.73;;;11.50;99.90;;;;;;5074916;28;20452;-59
2023/10/26 07:15:28;;;;;;;21.57;15.60;;;11.60;99.90;;;;;;5074982;28;20440;-59
2023/10/26 07:17:55;;;;;;;22.33;16.10;;;11.60;99.90;;;;;;5074798;28;20448;-59
2023/10/26 07:20:22;;;;;;;20.80;15.70;;;11.70;99.90;;;;;;5074602;28;20479;-59
2023/10/26 07:22:52;;;;;;;19.80;15.30;;;11.70;99.90;;;;;;5074720;28;20445;-59
2023/10/26 07:25:18;;;;;;;22.00;15.60;;;11.70;99.90;;;;;;5074573;28;20444;-59
2023/10/26 07:27:45;;;;;;;17.33;14.50;;;11.80;99.90;;;;;;5074608;28;20441;-59
2023/10/26 07:30:12;;;;;;;17.40;13.47;;;11.80;99.90;;;;;;5074417;28;20825;-59
2023/10/26 07:32:39;;;;;;;16.10;13.27;;;11.80;99.90;;;;;;5074698;28;20441;-59
2023/10/26 07:35:06;;;;;;;16.60;14.27;;;11.90;99.90;;;;;;5074439;28;20452;-59
2023/10/26 07:37:33;;;;;;;19.17;15.30;;;12.00;99.90;;;;;;5074067;28;20451;-59
2023/10/26 07:40:01;;;;;;;17.57;14.97;;;12.00;99.90;;;;;;5074322;28;20848;-59
2023/10/26 07:42:27;;;;;;;17.57;15.47;;;12.00;99.90;;;;;;5074283;28;20461;-59
2023/10/26 07:44:54;;;;;;;19.80;15.83;;;12.10;99.90;;;;;;5073902;28;20962;-59
2023/10/26 07:47:21;;;;;;;19.70;14.43;;;12.20;99.90;;;;;;5073722;28;20440;-59
2023/10/26 07:49:48;;;;;;;18.70;14.17;;;12.30;99.90;;;;;;5074243;28;20468;-59
2023/10/26 07:52:16;;;;;;;21.97;17.70;;;12.40;99.90;;;;;;5074016;28;20461;-59
2023/10/26 07:54:42;;;;;;;22.07;17.60;;;12.50;99.90;;;;;;5074076;28;20444;-59
2023/10/26 07:57:10;;;;;;;21.07;16.10;;;12.60;99.90;;;;;;5073965;28;20467;-59
2023/10/26 07:59:37;;;;;;;22.53;16.97;;;12.70;99.90;;;;;;5074012;28;20499;-59
2023/10/26 08:02:04;;;;;;;22.10;16.83;;;12.80;99.90;;;;;;5073510;28;20978;-59
2023/10/26 08:04:32;;;;;;;20.00;17.17;;;12.80;99.90;;;;;;5073734;28;20449;-59
2023/10/26 08:07:00;;;;;;;24.57;17.30;;;12.90;99.90;;;;;;5073649;28;20456;-59
2023/10/26 08:09:31;;;;;;;21.13;18.13;;;12.90;99.90;;;;;;5073835;28;20476;-59
2023/10/26 08:11:58;;;;;;;20.30;15.77;;;12.90;99.90;;;;;;5073713;28;20457;-59
2023/10/26 08:14:27;;;;;;;25.13;18.50;;;13.00;99.90;;;;;;5073695;28;20453;-59
2023/10/26 08:16:54;;;;;;;24.30;18.37;;;13.00;99.90;;;;;;5073371;28;20902;-59
2023/10/26 08:19:21;;;;;;;23.07;18.20;;;13.10;99.90;;;;;;5073564;28;20440;-59
2023/10/26 08:21:47;;;;;;;22.57;18.47;;;13.30;99.90;;;;;;5073191;28;20457;-59
2023/10/26 08:24:14;;;;;;;26.60;20.47;;;13.40;99.90;;;;;;5073270;28;20841;-59
2023/10/26 08:26:40;;;;;;;25.27;22.40;;;13.40;99.90;;;;;;5073547;28;20437;-59
2023/10/26 08:29:07;;;;;;;24.23;20.50;;;13.50;99.90;;;;;;5073549;28;20440;-59
2023/10/26 08:31:39;;;;;;;27.00;18.93;;;13.50;99.90;;;;;;5073465;28;20449;-59
2023/10/26 08:34:06;;;;;;;27.40;19.90;;;13.60;99.90;;;;;;5073246;28;20970;-59
2023/10/26 08:36:33;;;;;;;25.33;21.30;;;13.70;99.90;;;;;;5073644;28;20442;-59
2023/10/26 08:39:00;;;;;;;25.27;22.13;;;13.80;99.90;;;;;;5073211;28;20920;-59
2023/10/26 08:41:32;;;;;;;25.07;21.83;;;13.90;99.90;;;;;;5073408;28;20886;-59
2023/10/26 08:43:59;;;;;;;24.17;20.73;;;14.00;99.90;;;;;;5073509;28;20428;-60
2023/10/26 08:46:29;;;;;;;24.90;22.13;;;14.00;99.90;;;;;;5073389;28;20448;-59
2023/10/26 08:48:58;;;;;;;26.47;22.30;;;14.00;99.90;;;;;;5073235;28;20464;-59
2023/10/26 08:51:27;;;;;;;27.33;22.60;;;14.00;99.90;;;;;;5073182;28;20497;-59
2023/10/26 08:53:54;;;;;;;22.57;20.10;;;14.00;99.90;;;;;;5072933;28;20476;-59
2023/10/26 08:56:23;;;;;;;25.00;21.87;;;14.00;99.90;;;;;;5072956;28;20988;-59
2023/10/26 08:58:55;;;;;;;27.30;22.80;;;14.00;99.90;;;;;;5073650;28;20436;-59
2023/10/26 09:01:21;;;;;;;23.90;21.00;;;14.00;99.90;;;;;;5078099;28;20488;-59
2023/10/26 09:03:48;;;;;;;23.80;21.03;;;13.90;99.90;;;;;;5077005;28;20965;-59
2023/10/26 09:06:16;;;;;;;27.60;20.97;;;13.90;99.90;;;;;;5077006;28;20451;-59
2023/10/26 09:08:43;;;;;;;25.60;21.50;;;14.00;99.90;;;;;;5077284;28;20483;-59
2023/10/26 09:11:28;;;;;;;24.80;20.57;;;13.90;99.90;;;;;;5076808;28;20833;-59
2023/10/26 09:13:56;;;;;;;22.10;18.20;;;13.90;99.90;;;;;;5077137;28;20420;-59
2023/10/26 09:16:36;;;;;;;25.30;18.57;;;14.00;99.80;;;;;;5077108;28;20463;-59
2023/10/26 09:19:03;;;;;;;21.80;18.17;;;14.00;99.70;;;;;;5077196;28;20474;-59
2023/10/26 09:21:30;;;;;;;21.30;19.00;;;14.00;99.80;;;;;;5076856;28;20561;-59
2023/10/26 09:23:57;;;;;;;22.13;17.33;;;14.10;99.70;;;;;;5076641;28;20822;-59
2023/10/26 09:26:24;;;;;;;21.23;18.93;;;14.10;99.50;;;;;;5076999;28;20463;-59
2023/10/26 09:28:52;;;;;;;20.70;17.60;;;14.20;99.50;;;;;;5076875;28;20635;-59
2023/10/26 09:31:20;;;;;;;22.33;19.30;;;14.20;99.40;;;;;;5076768;28;20480;-59
2023/10/26 09:33:47;;;;;;;19.53;16.93;;;14.20;99.10;;;;;;5076761;28;20468;-59
2023/10/26 09:36:15;;;;;;;17.40;15.00;;;14.20;99.00;;;;;;5076658;28;20447;-59
2023/10/26 09:38:43;;;;;;;20.40;17.03;;;14.20;99.00;;;;;;5076600;28;20451;-59
2023/10/26 09:41:12;;;;;;;17.97;14.17;;;14.20;99.10;;;;;;5076430;28;20494;-59
2023/10/26 09:43:40;;;;;;;15.30;13.70;;;14.30;98.90;;;;;;5076503;28;20448;-59
2023/10/26 09:46:07;;;;;;;16.53;14.30;;;14.30;98.50;;;;;;5076460;28;20448;-59
2023/10/26 09:48:35;;;;;;;17.20;15.10;;;14.30;98.30;;;;;;5076485;28;20449;-59
2023/10/26 09:51:03;;;;;;;17.23;15.40;;;14.50;98.50;;;;;;5076395;28;20551;-59
2023/10/26 09:53:33;;;;;;;18.00;16.10;;;14.60;98.70;;;;;;5076298;28;20467;-59
2023/10/26 09:56:03;;;;;;;20.43;17.90;;;14.70;98.60;;;;;;5076299;28;20447;-59
2023/10/26 09:58:40;;;;;;;18.00;15.70;;;14.80;98.30;;;;;;5076074;28;20778;-59
2023/10/26 10:01:32;;;;;;;19.00;15.63;;;14.90;98.40;;;;;;5076065;28;20484;-59
2023/10/26 10:03:59;;;;;;;18.10;15.13;;;15.10;97.60;;;;;;5067542;28;20495;-59
2023/10/26 10:06:49;;;;;;;20.83;15.23;;;15.20;97.20;;;;;;5075821;28;20839;-59
2023/10/26 10:09:18;;;;;;;16.90;15.20;;;15.40;97.10;;;;;;5075946;28;20815;-59
2023/10/26 10:12:08;;;;;;;16.83;15.00;;;15.60;96.80;;;;;;5075613;28;20462;-59
2023/10/26 10:14:57;;;;;;;17.80;14.40;;;15.70;96.50;;;;;;5075666;28;20472;-59
2023/10/26 10:18:12;;;;;;;14.87;13.30;;;15.90;96.30;;;;;;5076154;28;20429;-60
2023/10/26 10:20:41;;;;;;;14.57;11.93;;;16.10;96.00;;;;;;5075772;28;20516;-59
2023/10/26 10:23:08;;;;;;;12.40;11.10;;;16.20;94.90;;;;;;5075840;28;20444;-59
2023/10/26 10:25:54;;;;;;;13.60;11.90;;;16.40;94.50;;;;;;5075887;28;20436;-60
2023/10/26 10:28:22;;;;;;;11.90;10.70;;;16.60;94.20;;;;;;5076342;28;20445;-59
2023/10/26 10:30:55;;;;;;;13.07;10.50;;;16.80;94.10;;;;;;5075702;28;20456;-60
2023/10/26 10:33:24;;;;;;;10.27;9.30;;;17.10;93.60;;;;;;5075488;28;20432;-59
2023/10/26 10:36:00;;;;;;;16.00;10.53;;;17.40;93.20;;;;;;5075656;28;20547;-59
2023/10/26 10:38:27;;;;;;;10.23;8.43;;;17.70;92.20;;;;;;5075307;28;20771;-59
2023/10/26 10:41:14;;;;;;;15.00;9.40;;;18.00;91.20;;;;;;5075270;28;21022;-59
2023/10/26 10:43:44;;;;;;;9.30;7.80;;;18.30;90.60;;;;;;5075426;28;20440;-59
2023/10/26 10:46:12;;;;;;;9.93;8.70;;;18.50;89.50;;;;;;5075438;28;20452;-59
2023/10/26 10:48:55;;;;;;;11.87;9.73;;;18.80;88.90;;;;;;5075410;28;20444;-60
2023/10/26 10:51:22;;;;;;;9.57;8.50;;;19.10;88.20;;;;;;5075273;28;20805;-59
2023/10/26 10:53:50;;;;;;;9.97;8.97;;;19.20;87.30;;;;;;5075310;28;20440;-59
2023/10/26 10:56:17;;;;;;;13.20;10.63;;;19.20;86.00;;;;;;5075341;28;20437;-59
2023/10/26 10:58:45;;;;;;;12.03;10.83;;;19.20;84.90;;;;;;5075243;28;20441;-60
2023/10/26 11:01:19;;;;;;;13.70;10.00;;;19.00;82.40;;;;;;5075311;28;20480;-60
2023/10/26 11:03:46;;;;;;;8.77;7.90;;;18.90;82.50;;;;;;5074847;28;20452;-59
2023/10/26 11:06:14;;;;;;;11.20;7.87;;;18.70;82.80;;;;;;5075003;28;20441;-59
2023/10/26 11:08:41;;;;;;;14.43;7.80;;;18.60;82.50;;;;;;5074685;28;21044;-59
2023/10/26 11:11:08;;;;;;;8.33;7.53;;;18.40;82.40;;;;;;5074853;28;20468;-59
2023/10/26 11:13:34;;;;;;;10.10;8.47;;;18.30;83.10;;;;;;5074760;28;20448;-59
2023/10/26 11:16:02;;;;;;;9.47;8.43;;;18.30;83.80;;;;;;5075138;28;20441;-60
2023/10/26 11:18:29;;;;;;;11.87;9.57;;;18.10;84.50;;;;;;5074604;28;20955;-60
2023/10/26 11:20:56;;;;;;;11.43;10.37;;;18.10;85.70;;;;;;5074591;28;20496;-60
2023/10/26 11:23:24;;;;;;;12.00;10.63;;;18.00;86.40;;;;;;5073990;28;20440;-59
2023/10/26 11:25:50;;;;;;;11.63;10.37;;;17.90;87.10;;;;;;5074680;28;20448;-59
2023/10/26 11:28:33;;;;;;;11.67;10.57;;;17.80;87.40;;;;;;5074611;28;20432;-60
2023/10/26 11:31:01;;;;;;;11.33;10.07;;;17.70;87.90;;;;;;5074538;28;20472;-60
2023/10/26 11:33:33;;;;;;;10.83;9.73;;;17.60;88.30;;;;;;5074388;28;20468;-59
2023/10/26 11:36:00;;;;;;;13.60;12.30;;;17.50;88.80;;;;;;5074203;28;20454;-59
2023/10/26 11:38:27;;;;;;;12.10;10.77;;;17.40;89.40;;;;;;5074651;28;20445;-60
2023/10/26 11:40:54;;;;;;;13.90;11.37;;;17.30;90.00;;;;;;5074135;28;20986;-59
2023/10/26 11:43:31;;;;;;;11.60;10.50;;;17.20;90.20;;;;;;5074219;28;21002;-59
2023/10/26 11:45:59;;;;;;;11.20;10.10;;;17.20;90.70;;;;;;5073535;28;20448;-59
2023/10/26 11:48:29;;;;;;;9.70;8.80;;;17.10;90.60;;;;;;5074237;28;20471;-60
2023/10/26 11:50:56;;;;;;;11.37;10.20;;;17.10;90.70;;;;;;5074440;28;20464;-59
2023/10/26 11:53:23;;;;;;;12.60;11.30;;;17.10;90.90;;;;;;5073812;28;20938;-60
2023/10/26 11:55:50;;;;;;;13.27;11.00;;;17.20;91.10;;;;;;5074089;28;20852;-60
2023/10/26 11:58:19;;;;;;;10.73;9.63;;;17.20;91.00;;;;;;5074000;28;20444;-60
2023/10/26 12:00:46;;;;;;;10.63;9.70;;;17.30;91.10;;;;;;5073839;28;20490;-60
2023/10/26 12:03:13;;;;;;;11.17;10.13;;;17.30;91.10;;;;;;5073677;28;20464;-60
2023/10/26 12:05:41;;;;;;;9.60;8.60;;;17.50;91.10;;;;;;5074020;28;20445;-60
2023/10/26 12:08:08;;;;;;;11.97;8.63;;;17.60;90.90;;;;;;5073866;28;20441;-60
2023/10/26 12:10:35;;;;;;;10.40;9.40;;;17.60;90.50;;;;;;5073391;28;20841;-60
2023/10/26 12:13:02;;;;;;;12.13;10.80;;;17.70;90.40;;;;;;5073807;28;20444;-60
2023/10/26 12:15:30;;;;;;;9.67;8.80;;;17.70;90.30;;;;;;5073764;28;20437;-59
2023/10/26 12:17:56;;;;;;;9.00;8.07;;;17.60;90.00;;;;;;5073832;28;20456;-59
2023/10/26 12:20:23;;;;;;;10.03;9.00;;;17.50;89.70;;;;;;5073551;28;20469;-59
2023/10/26 12:22:53;;;;;;;10.30;9.40;;;17.40;90.00;;;;;;5073860;28;20488;-59
2023/10/26 12:25:20;;;;;;;9.47;8.57;;;17.40;90.10;;;;;;5073463;28;20867;-59
2023/10/26 12:27:47;;;;;;;11.23;10.00;;;17.40;90.30;;;;;;5073541;28;20441;-59
2023/10/26 12:30:13;;;;;;;13.80;10.20;;;17.40;90.40;;;;;;5073470;28;20449;-59
2023/10/26 12:32:40;;;;;;;11.50;10.40;;;17.50;90.50;;;;;;5073462;28;20436;-60